createdAt,value
2019-05-29T00:01:20.373Z,10.00
2019-05-29T00:03:50.703Z,10.98
2019-05-29T00:06:22.482Z,10.88
2019-05-29T00:08:54.154Z,10.08
2019-05-29T00:11:25.752Z,9.88
2019-05-29T00:13:57.594Z,8.18
2019-05-29T00:16:29.254Z,11.33
2019-05-29T00:19:00.994Z,10.93
2019-05-29T00:21:32.598Z,10.50
2019-05-29T00:24:04.157Z,10.53
2019-05-29T00:26:35.990Z,11.48
2019-05-29T00:29:07.650Z,12.53
2019-05-29T00:31:39.257Z,10.93
2019-05-29T00:34:11.131Z,11.65
2019-05-29T00:36:42.727Z,9.78
2019-05-29T00:39:14.816Z,11.18
2019-05-29T00:41:46.378Z,11.43
2019-05-29T00:44:31.568Z,11.53
2019-05-29T00:46:51.304Z,13.05
2019-05-29T00:49:23.537Z,11.53
2019-05-29T00:51:55.343Z,11.18
2019-05-29T00:54:27.234Z,9.90
2019-05-29T00:56:58.694Z,13.18
2019-05-29T00:59:30.065Z,13.58
2019-05-29T01:02:01.646Z,11.30
2019-05-29T01:04:33.334Z,9.50
2019-05-29T01:07:05.025Z,7.78
2019-05-29T01:09:36.700Z,10.05
2019-05-29T01:12:08.126Z,11.70
2019-05-29T01:14:49.730Z,10.78
2019-05-29T01:17:13.667Z,9.35
2019-05-29T01:19:45.577Z,8.00
2019-05-29T01:22:18.683Z,8.05
2019-05-29T01:24:50.415Z,8.73
2019-05-29T01:27:23.016Z,8.90
2019-05-29T01:29:54.878Z,8.08
2019-05-29T01:32:26.602Z,9.33
2019-05-29T01:34:58.249Z,9.43
2019-05-29T01:37:30.355Z,10.78
2019-05-29T01:40:16.637Z,9.80
2019-05-29T01:42:35.018Z,9.00
2019-05-29T01:45:08.691Z,8.18
2019-05-29T01:47:40.781Z,8.43
2019-05-29T01:50:12.787Z,7.90
2019-05-29T01:52:44.328Z,8.53
2019-05-29T01:55:16.166Z,8.05
2019-05-29T01:57:47.827Z,9.75
2019-05-29T02:00:20.089Z,8.58
2019-05-29T02:02:51.865Z,7.60
2019-05-29T02:05:24.130Z,6.85
2019-05-29T02:07:56.318Z,7.47
2019-05-29T02:10:27.992Z,6.72
2019-05-29T02:12:59.810Z,6.83
2019-05-29T02:15:33.891Z,8.15
2019-05-29T02:18:04.383Z,8.63
2019-05-29T02:20:36.243Z,7.78
2019-05-29T02:23:08.227Z,11.48
2019-05-29T02:25:39.766Z,8.80
2019-05-29T02:28:11.126Z,7.92
2019-05-29T02:30:42.871Z,6.78
2019-05-29T02:33:14.397Z,7.83
2019-05-29T02:35:45.974Z,7.50
2019-05-29T02:38:18.444Z,5.35
2019-05-29T02:40:50.489Z,6.00
2019-05-29T02:43:23.599Z,7.33
2019-05-29T02:45:55.350Z,7.37
2019-05-29T02:48:28.067Z,8.70
2019-05-29T02:51:00.972Z,7.37
2019-05-29T02:53:32.612Z,6.83
2019-05-29T02:56:04.142Z,6.40
2019-05-29T02:58:35.707Z,6.92
2019-05-29T03:01:07.523Z,6.33
2019-05-29T03:03:40.027Z,7.67
2019-05-29T03:06:12.251Z,7.85
2019-05-29T03:08:43.990Z,7.50
2019-05-29T03:11:16.064Z,7.03
2019-05-29T03:13:47.637Z,7.17
2019-05-29T03:16:19.823Z,7.92
2019-05-29T03:18:51.326Z,6.58
2019-05-29T03:21:24.101Z,6.78
2019-05-29T03:23:55.767Z,7.53
2019-05-29T03:26:30.331Z,7.92
2019-05-29T03:29:00.467Z,7.72
2019-05-29T03:31:39.573Z,7.30
2019-05-29T03:34:05.508Z,8.10
2019-05-29T03:36:43.526Z,7.55
2019-05-29T03:39:10.335Z,7.67
2019-05-29T03:41:42.219Z,9.13
2019-05-29T03:44:13.905Z,8.68
2019-05-29T03:46:46.175Z,7.45
2019-05-29T03:49:18.089Z,8.23
2019-05-29T03:51:49.851Z,8.63
2019-05-29T03:54:21.233Z,7.58
2019-05-29T03:56:53.070Z,7.70
2019-05-29T03:59:26.588Z,7.90
2019-05-29T04:01:57.892Z,8.70
2019-05-29T04:04:31.151Z,7.80
2019-05-29T04:07:02.781Z,7.03
2019-05-29T04:09:35.409Z,6.45
2019-05-29T04:12:07.259Z,7.47
2019-05-29T04:14:38.796Z,6.58
2019-05-29T04:17:10.151Z,7.45
2019-05-29T04:19:41.856Z,7.20
2019-05-29T04:22:13.361Z,6.97
2019-05-29T04:24:45.213Z,9.20
2019-05-29T04:27:16.878Z,9.28
2019-05-29T04:29:48.279Z,7.20
2019-05-29T04:32:20.001Z,5.40
2019-05-29T04:34:51.651Z,5.87
2019-05-29T04:37:23.542Z,6.42
2019-05-29T04:39:55.259Z,6.80
2019-05-29T04:42:28.884Z,6.40
2019-05-29T04:44:59.836Z,7.28
2019-05-29T04:47:33.119Z,5.42
2019-05-29T04:50:04.046Z,6.17
2019-05-29T04:52:37.677Z,6.10
2019-05-29T04:55:08.821Z,5.90
2019-05-29T04:57:40.707Z,5.25
2019-05-29T05:00:12.253Z,4.83
2019-05-29T05:02:44.106Z,4.87
2019-05-29T05:05:18.842Z,5.35
2019-05-29T05:07:48.722Z,4.33
2019-05-29T05:10:38.116Z,4.62
2019-05-29T05:13:09.892Z,4.65
2019-05-29T05:15:41.230Z,4.40
2019-05-29T05:18:13.397Z,5.58
2019-05-29T05:20:44.706Z,5.35
2019-05-29T05:23:16.453Z,4.40
2019-05-29T05:25:48.133Z,4.37
2019-05-29T05:28:20.020Z,4.33
2019-05-29T05:30:51.686Z,4.10
2019-05-29T05:33:23.435Z,4.20
2019-05-29T05:35:55.176Z,4.37
2019-05-29T05:38:27.103Z,4.08
2019-05-29T05:40:58.447Z,4.10
2019-05-29T05:43:30.680Z,3.12
2019-05-29T05:46:02.167Z,3.58
2019-05-29T05:48:33.686Z,3.80
2019-05-29T05:51:05.205Z,4.08
2019-05-29T05:53:37.572Z,3.30
2019-05-29T05:56:09.390Z,3.40
2019-05-29T05:58:42.287Z,3.72
2019-05-29T06:01:14.344Z,3.62
2019-05-29T06:03:45.913Z,3.37
2019-05-29T06:06:17.785Z,4.35
2019-05-29T06:08:49.170Z,4.15
2019-05-29T06:11:21.131Z,3.67
2019-05-29T06:13:52.583Z,3.90
2019-05-29T06:16:24.491Z,3.92
2019-05-29T06:18:56.194Z,3.55
2019-05-29T06:21:27.974Z,3.37
2019-05-29T06:23:59.498Z,4.12
2019-05-29T06:26:30.783Z,3.40
2019-05-29T06:29:02.520Z,4.17
2019-05-29T06:31:35.155Z,3.92
2019-05-29T06:34:07.280Z,4.17
2019-05-29T06:36:39.631Z,4.50
2019-05-29T06:39:11.450Z,8.30
2019-05-29T06:41:44.231Z,6.33
2019-05-29T06:44:16.265Z,4.55
2019-05-29T06:46:47.654Z,3.55
2019-05-29T06:49:19.226Z,3.95
2019-05-29T06:51:50.942Z,5.17
2019-05-29T06:54:22.790Z,4.90
2019-05-29T06:56:54.526Z,4.53
2019-05-29T06:59:26.178Z,6.45
2019-05-29T07:01:57.692Z,4.92
2019-05-29T07:04:29.402Z,4.12
2019-05-29T07:07:01.398Z,4.22
2019-05-29T07:09:33.531Z,7.72
2019-05-29T07:12:05.070Z,5.72
2019-05-29T07:14:36.660Z,5.75
2019-05-29T07:17:08.622Z,4.47
2019-05-29T07:19:53.908Z,5.05
2019-05-29T07:22:13.522Z,4.67
2019-05-29T07:24:46.942Z,4.67
2019-05-29T07:27:18.862Z,4.28
2019-05-29T07:29:51.379Z,4.75
2019-05-29T07:32:23.474Z,4.28
2019-05-29T07:35:03.371Z,3.65
2019-05-29T07:37:27.844Z,4.05
2019-05-29T07:39:59.296Z,4.50
2019-05-29T07:42:30.944Z,4.37
2019-05-29T07:45:02.729Z,4.83
2019-05-29T07:47:34.397Z,5.10
2019-05-29T07:50:06.682Z,5.17
2019-05-29T07:52:38.652Z,4.50
2019-05-29T07:55:11.304Z,5.12
2019-05-29T07:57:42.767Z,4.40
2019-05-29T08:00:14.693Z,4.65
2019-05-29T08:02:47.531Z,4.72
2019-05-29T08:05:19.188Z,4.28
2019-05-29T08:07:50.930Z,4.65
2019-05-29T08:10:22.491Z,4.65
2019-05-29T08:12:55.915Z,4.97
2019-05-29T08:15:27.366Z,5.12
2019-05-29T08:17:59.347Z,4.45
2019-05-29T08:20:30.846Z,4.33
2019-05-29T08:23:02.283Z,4.58
2019-05-29T08:25:34.117Z,4.17
2019-05-29T08:28:05.347Z,3.67
2019-05-29T08:30:38.403Z,3.90
2019-05-29T08:33:10.253Z,3.30
2019-05-29T08:35:42.967Z,4.80
2019-05-29T08:38:14.858Z,9.85
2019-05-29T08:40:47.320Z,5.55
2019-05-29T08:43:19.231Z,4.15
2019-05-29T08:45:52.526Z,4.75
2019-05-29T08:48:23.915Z,4.08
2019-05-29T08:50:55.439Z,4.10
2019-05-29T08:53:27.011Z,4.45
2019-05-29T08:55:59.560Z,3.67
2019-05-29T08:58:31.324Z,3.52
2019-05-29T09:01:03.220Z,2.83
2019-05-29T09:03:34.886Z,3.40
2019-05-29T09:06:09.068Z,3.70
2019-05-29T09:08:39.722Z,3.35
2019-05-29T09:11:11.490Z,3.72
2019-05-29T09:13:42.942Z,4.10
2019-05-29T09:16:14.690Z,3.72
2019-05-29T09:18:47.195Z,3.70
2019-05-29T09:21:19.183Z,4.83
2019-05-29T09:23:52.461Z,4.95
2019-05-29T09:26:25.819Z,5.42
2019-05-29T09:28:56.711Z,4.05
2019-05-29T09:31:28.543Z,4.03
2019-05-29T09:34:00.634Z,4.12
2019-05-29T09:36:32.400Z,5.05
2019-05-29T09:39:04.438Z,7.00
2019-05-29T09:41:36.097Z,4.20
2019-05-29T09:44:07.598Z,4.20
2019-05-29T09:46:39.441Z,4.60
2019-05-29T09:49:11.931Z,4.10
2019-05-29T09:51:43.342Z,3.92
2019-05-29T09:54:15.121Z,3.30
2019-05-29T09:56:47.095Z,3.80
2019-05-29T09:59:19.055Z,4.00
2019-05-29T10:01:50.721Z,3.37
2019-05-29T10:04:22.802Z,3.70
2019-05-29T10:06:54.920Z,3.75
2019-05-29T10:09:29.275Z,4.20
2019-05-29T10:12:04.104Z,3.65
2019-05-29T10:14:34.037Z,3.70
2019-05-29T10:17:11.762Z,3.72
2019-05-29T10:19:38.814Z,3.47
2019-05-29T10:22:10.337Z,2.70
2019-05-29T10:24:42.022Z,3.70
2019-05-29T10:27:13.996Z,3.80
2019-05-29T10:29:49.634Z,3.10
2019-05-29T10:32:18.871Z,3.25
2019-05-29T10:34:50.655Z,4.35
2019-05-29T10:37:22.529Z,4.22
2019-05-29T10:39:53.985Z,4.03
2019-05-29T10:42:25.518Z,2.70
2019-05-29T10:44:57.305Z,3.52
2019-05-29T10:47:29.046Z,3.70
2019-05-29T10:50:00.858Z,3.20
2019-05-29T10:52:32.573Z,3.27
2019-05-29T10:55:04.410Z,3.80
2019-05-29T10:57:36.363Z,3.80
2019-05-29T11:00:10.691Z,3.52
2019-05-29T11:02:42.604Z,3.87
2019-05-29T11:05:14.435Z,3.70
2019-05-29T11:07:46.095Z,3.47
2019-05-29T11:10:18.247Z,3.87
2019-05-29T11:12:50.661Z,4.55
2019-05-29T11:15:22.981Z,3.90
2019-05-29T11:17:55.328Z,3.85
2019-05-29T11:20:27.438Z,4.47
2019-05-29T11:22:59.366Z,4.20
2019-05-29T11:25:31.202Z,4.15
2019-05-29T11:28:02.710Z,4.00
2019-05-29T11:30:51.943Z,4.53
2019-05-29T11:33:22.901Z,3.60
2019-05-29T11:36:06.007Z,3.67
2019-05-29T11:38:27.600Z,4.37
2019-05-29T11:41:24.712Z,3.42
2019-05-29T11:43:32.417Z,3.33
2019-05-29T11:46:04.484Z,4.30
2019-05-29T11:48:36.123Z,3.47
2019-05-29T11:51:08.073Z,4.12
2019-05-29T11:53:39.747Z,3.17
2019-05-29T11:56:11.645Z,2.70
2019-05-29T11:58:45.638Z,2.55
2019-05-29T12:01:17.510Z,3.42
2019-05-29T12:04:15.683Z,2.95
2019-05-29T12:06:22.370Z,3.40
2019-05-29T12:08:54.011Z,3.35
2019-05-29T12:11:25.968Z,3.27
2019-05-29T12:13:58.062Z,3.00
2019-05-29T12:16:30.041Z,3.42
2019-05-29T12:19:01.946Z,4.17
2019-05-29T12:21:33.820Z,3.20
2019-05-29T12:24:05.566Z,3.62
2019-05-29T12:26:37.706Z,3.52
2019-05-29T12:29:11.811Z,4.40
2019-05-29T12:31:42.554Z,3.52
2019-05-29T12:34:19.250Z,3.20
2019-05-29T12:36:47.202Z,3.20
2019-05-29T12:39:18.704Z,3.15
2019-05-29T12:41:50.615Z,3.85
2019-05-29T12:44:22.339Z,4.03
2019-05-29T12:46:55.478Z,3.58
2019-05-29T12:49:27.014Z,3.55
2019-05-29T12:51:59.581Z,5.45
2019-05-29T12:54:31.667Z,4.40
2019-05-29T12:57:04.126Z,4.08
2019-05-29T12:59:36.382Z,3.85
2019-05-29T13:02:08.052Z,4.97
2019-05-29T13:05:05.921Z,4.25
2019-05-29T13:07:12.722Z,3.98
2019-05-29T13:09:44.765Z,3.80
2019-05-29T13:12:16.606Z,3.35
2019-05-29T13:14:48.585Z,3.60
2019-05-29T13:17:20.146Z,3.55
2019-05-29T13:19:51.953Z,3.62
2019-05-29T13:22:23.860Z,4.20
2019-05-29T13:24:57.043Z,3.77
2019-05-29T13:27:28.842Z,3.42
2019-05-29T13:30:02.515Z,3.47
2019-05-29T13:32:33.568Z,3.25
2019-05-29T13:35:06.300Z,3.25
2019-05-29T13:37:37.886Z,3.65
2019-05-29T13:40:09.711Z,3.40
2019-05-29T13:42:41.246Z,3.98
2019-05-29T13:45:18.279Z,3.62
2019-05-29T13:47:46.075Z,2.98
2019-05-29T13:50:17.851Z,4.08
2019-05-29T13:52:49.540Z,3.58
2019-05-29T13:55:21.383Z,3.42
2019-05-29T13:57:52.938Z,3.05
2019-05-29T14:00:33.106Z,3.42
2019-05-29T14:02:58.576Z,3.35
2019-05-29T14:05:30.534Z,3.37
2019-05-29T14:08:02.754Z,3.60
2019-05-29T14:10:34.719Z,3.47
2019-05-29T14:13:07.391Z,3.67
2019-05-29T14:15:39.429Z,3.05
2019-05-29T14:18:11.034Z,3.75
2019-05-29T14:20:42.868Z,3.55
2019-05-29T14:23:14.583Z,3.15
2019-05-29T14:25:46.210Z,3.37
2019-05-29T14:28:18.042Z,3.00
2019-05-29T14:30:50.122Z,3.87
2019-05-29T14:33:21.806Z,3.52
2019-05-29T14:35:53.846Z,2.98
2019-05-29T14:38:25.598Z,2.95
2019-05-29T14:40:57.291Z,2.72
2019-05-29T14:43:29.286Z,3.50
2019-05-29T14:46:01.817Z,3.08
2019-05-29T14:48:33.691Z,2.92
2019-05-29T14:51:06.448Z,3.45
2019-05-29T14:53:38.557Z,3.30
2019-05-29T14:56:10.633Z,3.20
2019-05-29T14:58:42.665Z,3.60
2019-05-29T15:01:16.571Z,3.30
2019-05-29T15:03:48.594Z,3.30
2019-05-29T15:06:20.507Z,3.42
2019-05-29T15:08:52.416Z,3.75
2019-05-29T15:11:24.074Z,3.80
2019-05-29T15:13:56.202Z,4.08
2019-05-29T15:16:27.967Z,3.30
2019-05-29T15:18:59.672Z,3.08
2019-05-29T15:21:31.402Z,2.80
2019-05-29T15:24:03.171Z,2.58
2019-05-29T15:26:34.897Z,3.75
2019-05-29T15:29:07.957Z,4.67
2019-05-29T15:31:39.803Z,4.25
2019-05-29T15:34:12.415Z,4.75
2019-05-29T15:36:44.071Z,4.47
2019-05-29T15:39:16.888Z,4.28
2019-05-29T15:41:48.545Z,4.67
2019-05-29T15:44:20.526Z,4.12
2019-05-29T15:46:52.146Z,4.28
2019-05-29T15:49:23.944Z,4.05
2019-05-29T15:51:55.362Z,3.95
2019-05-29T15:54:27.257Z,3.52
2019-05-29T15:56:58.935Z,2.85
2019-05-29T15:59:30.986Z,4.67
2019-05-29T16:02:03.134Z,3.40
2019-05-29T16:04:34.930Z,2.92
2019-05-29T16:07:07.779Z,3.00
2019-05-29T16:09:39.771Z,3.10
2019-05-29T16:12:12.642Z,4.33
2019-05-29T16:14:44.504Z,2.98
2019-05-29T16:17:17.265Z,3.62
2019-05-29T16:19:49.300Z,3.45
2019-05-29T16:22:20.830Z,3.62
2019-05-29T16:24:52.902Z,4.30
2019-05-29T16:27:30.044Z,3.80
2019-05-29T16:29:57.666Z,3.70
2019-05-29T16:32:29.078Z,3.45
2019-05-29T16:35:00.946Z,3.55
2019-05-29T16:37:32.965Z,3.75
2019-05-29T16:40:04.591Z,3.02
2019-05-29T16:42:36.445Z,3.62
2019-05-29T16:45:12.086Z,4.05
2019-05-29T16:47:44.239Z,4.58
2019-05-29T16:50:17.294Z,4.35
2019-05-29T16:52:48.953Z,3.90
2019-05-29T16:55:21.119Z,3.30
2019-05-29T16:57:53.154Z,4.35
2019-05-29T17:00:25.019Z,4.10
2019-05-29T17:02:57.405Z,4.72
2019-05-29T17:05:29.052Z,3.60
2019-05-29T17:08:00.615Z,2.80
2019-05-29T17:10:39.126Z,2.85
2019-05-29T17:13:10.926Z,3.30
2019-05-29T17:15:42.597Z,3.47
2019-05-29T17:18:14.729Z,3.15
2019-05-29T17:20:47.314Z,2.83
2019-05-29T17:23:18.970Z,2.77
2019-05-29T17:25:50.950Z,2.85
2019-05-29T17:28:25.100Z,2.60
2019-05-29T17:30:55.706Z,3.33
2019-05-29T17:33:27.250Z,2.55
2019-05-29T17:35:59.399Z,3.35
2019-05-29T17:38:31.055Z,2.40
2019-05-29T17:41:03.202Z,2.10
2019-05-29T17:43:34.902Z,2.50
2019-05-29T17:46:06.751Z,2.47
2019-05-29T17:48:38.452Z,2.40
2019-05-29T17:51:10.231Z,2.62
2019-05-29T17:53:41.828Z,2.58
2019-05-29T17:56:25.449Z,2.70
2019-05-29T17:58:46.275Z,2.20
2019-05-29T18:01:18.212Z,2.50
2019-05-29T18:03:50.725Z,2.72
2019-05-29T18:06:22.570Z,2.72
2019-05-29T18:08:54.610Z,2.70
2019-05-29T18:11:27.569Z,2.27
2019-05-29T18:14:03.073Z,2.37
2019-05-29T18:16:32.435Z,2.37
2019-05-29T18:19:04.528Z,2.15
2019-05-29T18:21:36.265Z,2.40
2019-05-29T18:24:08.194Z,2.52
2019-05-29T18:26:46.953Z,2.15
2019-05-29T18:29:12.931Z,2.50
2019-05-29T18:31:44.590Z,1.90
2019-05-29T18:34:16.362Z,2.27
2019-05-29T18:36:48.013Z,2.05
2019-05-29T18:39:20.245Z,2.08
2019-05-29T18:41:51.942Z,2.20
2019-05-29T18:44:24.739Z,2.30
2019-05-29T18:46:56.470Z,2.12
2019-05-29T18:49:28.643Z,2.20
2019-05-29T18:52:00.829Z,2.30
2019-05-29T18:54:33.132Z,2.62
2019-05-29T18:57:15.332Z,2.58
2019-05-29T18:59:38.230Z,2.22
2019-05-29T19:02:10.051Z,2.70
2019-05-29T19:04:42.218Z,2.90
2019-05-29T19:07:13.870Z,2.08
2019-05-29T19:09:45.761Z,2.47
2019-05-29T19:12:17.278Z,2.87
2019-05-29T19:14:49.035Z,2.02
2019-05-29T19:17:21.858Z,2.77
2019-05-29T19:19:53.918Z,2.70
2019-05-29T19:22:26.325Z,1.90
2019-05-29T19:24:58.274Z,2.35
2019-05-29T19:27:37.700Z,2.08
2019-05-29T19:30:03.398Z,2.85
2019-05-29T19:32:35.183Z,2.67
2019-05-29T19:35:08.024Z,2.92
2019-05-29T19:37:39.681Z,2.25
2019-05-29T19:40:11.347Z,2.42
2019-05-29T19:42:43.047Z,2.45
2019-05-29T19:45:14.576Z,3.52
2019-05-29T19:47:46.617Z,2.60
2019-05-29T19:50:18.957Z,2.58
2019-05-29T19:52:50.965Z,2.92
2019-05-29T19:55:22.850Z,3.20
2019-05-29T19:57:56.751Z,2.62
2019-05-29T20:00:28.059Z,2.72
2019-05-29T20:02:59.902Z,2.45
2019-05-29T20:05:32.746Z,2.70
2019-05-29T20:08:04.789Z,2.95
2019-05-29T20:10:37.581Z,3.75
2019-05-29T20:13:09.690Z,3.08
2019-05-29T20:15:41.446Z,3.02
2019-05-29T20:18:13.466Z,2.98
2019-05-29T20:20:45.370Z,3.12
2019-05-29T20:23:17.260Z,2.45
2019-05-29T20:25:48.943Z,3.50
2019-05-29T20:28:21.003Z,3.75
2019-05-29T20:30:52.946Z,3.30
2019-05-29T20:33:24.741Z,4.25
2019-05-29T20:35:56.380Z,3.83
2019-05-29T20:38:28.317Z,4.37
2019-05-29T20:40:59.953Z,3.90
2019-05-29T20:43:31.609Z,3.47
2019-05-29T20:46:03.511Z,3.80
2019-05-29T20:48:35.146Z,3.50
2019-05-29T20:51:07.337Z,3.55
2019-05-29T20:53:40.307Z,3.50
2019-05-29T20:56:12.317Z,3.10
2019-05-29T20:58:44.147Z,3.72
2019-05-29T21:01:16.070Z,4.35
2019-05-29T21:03:47.782Z,3.65
2019-05-29T21:06:21.950Z,4.05
2019-05-29T21:08:53.426Z,4.28
2019-05-29T21:11:25.100Z,3.47
2019-05-29T21:13:57.188Z,4.30
2019-05-29T21:16:28.920Z,4.97
2019-05-29T21:19:00.726Z,4.47
2019-05-29T21:21:32.404Z,4.58
2019-05-29T21:24:04.001Z,3.90
2019-05-29T21:26:36.726Z,3.40
2019-05-29T21:29:08.669Z,4.65
2019-05-29T21:31:41.574Z,5.05
2019-05-29T21:34:13.409Z,4.55
2019-05-29T21:36:46.266Z,4.00
2019-05-29T21:39:18.161Z,4.20
2019-05-29T21:41:50.146Z,5.30
2019-05-29T21:44:21.699Z,4.83
2019-05-29T21:46:53.491Z,4.50
2019-05-29T21:49:25.368Z,5.80
2019-05-29T21:51:57.014Z,6.10
2019-05-29T21:54:28.958Z,5.37
2019-05-29T21:57:00.518Z,6.70
2019-05-29T21:59:32.363Z,6.47
2019-05-29T22:02:04.657Z,5.90
2019-05-29T22:04:36.155Z,6.40
2019-05-29T22:07:08.405Z,6.12
2019-05-29T22:09:40.254Z,5.35
2019-05-29T22:12:12.246Z,6.45
2019-05-29T22:14:43.866Z,6.25
2019-05-29T22:17:15.871Z,6.15
2019-05-29T22:19:47.598Z,6.83
2019-05-29T22:22:19.678Z,5.35
2019-05-29T22:24:51.315Z,6.47
2019-05-29T22:27:23.433Z,6.05
2019-05-29T22:29:55.302Z,6.72
2019-05-29T22:32:27.278Z,8.15
2019-05-29T22:34:59.595Z,7.20
2019-05-29T22:37:32.130Z,8.05
2019-05-29T22:40:03.940Z,9.08
2019-05-29T22:42:35.684Z,10.93
2019-05-29T22:45:07.796Z,9.00
2019-05-29T22:47:39.617Z,8.35
2019-05-29T22:50:11.606Z,7.55
2019-05-29T22:52:43.158Z,7.70
2019-05-29T22:55:15.118Z,8.65
2019-05-29T22:57:46.911Z,7.25
2019-05-29T23:00:19.758Z,10.03
2019-05-29T23:02:51.918Z,9.45
2019-05-29T23:05:23.885Z,9.35
2019-05-29T23:07:56.112Z,8.25
2019-05-29T23:10:28.026Z,7.78
2019-05-29T23:13:02.532Z,8.25
2019-05-29T23:15:33.372Z,6.28
2019-05-29T23:18:05.198Z,7.47
2019-05-29T23:20:37.209Z,9.13
2019-05-29T23:23:08.921Z,8.68
2019-05-29T23:25:41.025Z,8.33
2019-05-29T23:28:12.650Z,7.58
2019-05-29T23:30:50.546Z,9.08
2019-05-29T23:33:22.078Z,9.13
2019-05-29T23:35:54.798Z,6.80
2019-05-29T23:38:26.974Z,8.28
2019-05-29T23:40:59.491Z,8.90
2019-05-29T23:43:31.473Z,9.40
2019-05-29T23:46:04.008Z,6.50
2019-05-29T23:48:36.164Z,8.10
2019-05-29T23:51:07.883Z,8.18
2019-05-29T23:53:39.438Z,8.23
2019-05-29T23:56:11.322Z,8.95
2019-05-29T23:58:42.858Z,7.35
